Time;durP1;ratioP1;P1;durP2;ratioP2;P2;SDS_P1;SDS_P2;PMS_P1;PMS_P2;Temp;Humidity;BMP_temperature;BMP_pressure;BME280_temperature;BME280_humidity;BME280_pressure;Samples;Min_cycle;Max_cycle;Signal;HPM_P1;HPM_P2
2022/11/09 00:02:33;;;;;;;;;;;;;;;;;;10428528;28;19925;-78
2022/11/09 00:07:35;;;;;;;;;;;;;;;;;;10378588;28;19936;-77
2022/11/09 00:12:35;;;;;;;;;;;;;;;;;;10381469;28;19925;-77
2022/11/09 00:17:38;;;;;;;;;;;;;;;;;;10379985;28;19976;-76
2022/11/09 00:22:39;;;;;;;;;;;;;;;;;;10384176;28;19921;-76
2022/11/09 00:27:40;;;;;;;;;;;;;;;;;;10368472;28;20300;-76
2022/11/09 00:32:40;;;;;;;;;;;;;;;;;;10381971;28;19921;-76
2022/11/09 00:37:40;;;;;;;;;;;;;;;;;;10382691;28;20020;-77
2022/11/09 00:42:44;;;;;;;;;;;;;;;;;;10375409;28;19956;-77
2022/11/09 00:47:45;;;;;;;;;;;;;;;;;;10390450;28;19984;-77
2022/11/09 00:52:47;;;;;;;;;;;;;;;;;;10373188;28;20016;-75
2022/11/09 00:57:47;;;;;;;;;;;;;;;;;;10380527;28;20000;-75
2022/11/09 01:02:47;;;;;;;;;;;;;;;;;;10380717;28;19928;-74
2022/11/09 01:07:48;;;;;;;;;;;;;;;;;;10382734;28;20059;-75
2022/11/09 01:12:48;;;;;;;;;;;;;;;;;;10380569;28;19925;-75
2022/11/09 01:17:48;;;;;;;;;;;;;;;;;;10381894;28;20372;-75
2022/11/09 01:22:50;;;;;;;;;;;;;;;;;;10393536;28;19952;-75
2022/11/09 01:27:53;;;;;;;;;;;;;;;;;;10409936;28;19929;-75
2022/11/09 01:32:54;;;;;;;;;;;;;;;;;;10389231;28;19964;-75
2022/11/09 01:37:55;;;;;;;;;;;;;;;;;;10392327;28;19928;-74
2022/11/09 01:42:57;;;;;;;;;;;;;;;;;;10375275;28;20024;-74
2022/11/09 01:47:57;;;;;;;;;;;;;;;;;;10383066;28;19928;-74
2022/11/09 01:52:58;;;;;;;;;;;;;;;;;;10385415;28;19952;-74
2022/11/09 01:57:59;;;;;;;;;;;;;;;;;;10378092;28;19957;-74
2022/11/09 02:03:00;;;;;;;;;;;;;;;;;;10377636;28;20620;-73
2022/11/09 02:08:03;;;;;;;;;;;;;;;;;;10371109;28;20393;-74
2022/11/09 02:13:06;;;;;;;;;;;;;;;;;;10364967;28;20400;-74
2022/11/09 02:18:10;;;;;;;;;;;;;;;;;;10363866;28;19918;-75
2022/11/09 02:23:12;;;;;;;;;;;;;;;;;;10368250;28;20369;-74
2022/11/09 02:28:13;;;;;;;;;;;;;;;;;;10376274;28;19921;-75
2022/11/09 02:33:13;;;;;;;;;;;;;;;;;;10344019;28;19963;-74
2022/11/09 02:38:13;;;;;;;;;;;;;;;;;;10372786;28;19917;-74
2022/11/09 02:43:13;;;;;;;;;;;;;;;;;;10353499;28;20270;-73
2022/11/09 02:48:16;;;;;;;;;;;;;;;;;;10380746;28;20269;-73
2022/11/09 02:53:17;;;;;;;;;;;;;;;;;;10383795;28;19916;-77
2022/11/09 02:58:24;;;;;;;;;;;;;;;;;;10406540;28;19925;-75
2022/11/09 03:03:24;;;;;;;;;;;;;;;;;;10396269;28;19929;-77
2022/11/09 03:08:25;;;;;;;;;;;;;;;;;;10418215;28;19921;-76
2022/11/09 03:13:28;;;;;;;;;;;;;;;;;;10384539;28;19922;-74
2022/11/09 03:18:28;;;;;;;;;;;;;;;;;;10358640;28;19952;-75
2022/11/09 03:23:31;;;;;;;;;;;;;;;;;;10393859;28;19932;-77
2022/11/09 03:28:34;;;;;;;;;;;;;;;;;;10373284;28;19922;-76
2022/11/09 03:33:35;;;;;;;;;;;;;;;;;;10384874;28;19921;-76
2022/11/09 03:38:36;;;;;;;;;;;;;;;;;;10401538;28;20009;-75
2022/11/09 03:43:36;;;;;;;;;;;;;;;;;;10381707;28;19951;-75
2022/11/09 03:48:36;;;;;;;;;;;;;;;;;;10387339;28;19925;-76
2022/11/09 03:53:36;;;;;;;;;;;;;;;;;;10378897;28;19989;-76
2022/11/09 03:58:37;;;;;;;;;;;;;;;;;;10378369;28;19917;-76
2022/11/09 04:03:37;;;;;;;;;;;;;;;;;;10394193;28;19933;-75
2022/11/09 04:08:37;;;;;;;;;;;;;;;;;;10389348;28;19995;-76
2022/11/09 04:13:37;;;;;;;;;;;;;;;;;;10395030;28;20261;-76
2022/11/09 04:18:38;;;;;;;;;;;;;;;;;;10378230;28;19921;-76
2022/11/09 04:23:40;;;;;;;;;;;;;;;;;;10365016;28;20629;-76
2022/11/09 04:28:42;;;;;;;;;;;;;;;;;;10377373;28;19932;-77
2022/11/09 04:33:42;;;;;;;;;;;;;;;;;;10378078;28;20374;-77
2022/11/09 04:38:43;;;;;;;;;;;;;;;;;;10372802;28;19940;-76
2022/11/09 04:43:45;;;;;;;;;;;;;;;;;;10417981;28;19921;-76
2022/11/09 04:48:46;;;;;;;;;;;;;;;;;;10430700;28;19917;-74
2022/11/09 04:53:46;;;;;;;;;;;;;;;;;;10419179;28;19906;-77
2022/11/09 04:58:48;;;;;;;;;;;;;;;;;;10371377;28;19918;-77
2022/11/09 05:03:48;;;;;;;;;;;;;;;;;;10386206;28;19925;-77
2022/11/09 05:08:48;;;;;;;;;;;;;;;;;;10376390;28;19926;-75
2022/11/09 05:13:50;;;;;;;;;;;;;;;;;;10359563;28;19921;-76
2022/11/09 05:18:51;;;;;;;;;;;;;;;;;;10369327;28;19972;-76
2022/11/09 05:24:01;;;;;;;;;;;;;;;;;;10385096;28;20400;-75
2022/11/09 05:29:02;;;;;;;;;;;;;;;;;;10382963;28;19925;-76
2022/11/09 05:34:02;;;;;;;;;;;;;;;;;;10384021;28;19921;-77
2022/11/09 05:39:02;;;;;;;;;;;;;;;;;;10385195;28;19943;-75
2022/11/09 05:44:04;;;;;;;;;;;;;;;;;;10406749;28;19952;-76
2022/11/09 05:49:04;;;;;;;;;;;;;;;;;;10425271;28;19925;-77
2022/11/09 05:54:04;;;;;;;;;;;;;;;;;;10429060;28;19928;-75
2022/11/09 05:59:04;;;;;;;;;;;;;;;;;;10393027;28;19925;-73
2022/11/09 06:04:04;;;;;;;;;;;;;;;;;;10388990;28;19932;-76
2022/11/09 06:09:05;;;;;;;;;;;;;;;;;;10385710;28;19936;-75
2022/11/09 06:14:05;;;;;;;;;;;;;;;;;;10386817;28;19929;-75
2022/11/09 06:19:05;;;;;;;;;;;;;;;;;;10370666;28;19926;-73
2022/11/09 06:24:05;;;;;;;;;;;;;;;;;;10384853;28;20027;-74
2022/11/09 06:29:06;;;;;;;;;;;;;;;;;;10375849;28;19925;-74
2022/11/09 06:34:07;;;;;;;;;;;;;;;;;;10386019;28;19939;-74
2022/11/09 06:39:07;;;;;;;;;;;;;;;;;;10363963;28;20020;-75
2022/11/09 06:44:08;;;;;;;;;;;;;;;;;;10392241;28;19982;-74
2022/11/09 06:49:08;;;;;;;;;;;;;;;;;;10377202;28;19928;-76
2022/11/09 06:54:08;;;;;;;;;;;;;;;;;;10388075;28;19932;-77
2022/11/09 06:59:08;;;;;;;;;;;;;;;;;;10379818;28;19925;-74
2022/11/09 07:04:09;;;;;;;;;;;;;;;;;;10392575;28;19940;-75
2022/11/09 07:09:09;;;;;;;;;;;;;;;;;;10378779;28;20453;-75
2022/11/09 07:14:09;;;;;;;;;;;;;;;;;;10382206;28;20280;-74
2022/11/09 07:19:09;;;;;;;;;;;;;;;;;;10386122;28;19921;-76
2022/11/09 07:24:10;;;;;;;;;;;;;;;;;;10394240;28;19929;-75
2022/11/09 07:29:10;;;;;;;;;;;;;;;;;;10378054;28;19921;-74
2022/11/09 07:34:10;;;;;;;;;;;;;;;;;;10395377;28;20012;-74
2022/11/09 07:39:10;;;;;;;;;;;;;;;;;;10389349;28;20362;-75
2022/11/09 07:44:13;;;;;;;;;;;;;;;;;;10390712;28;19925;-75
2022/11/09 07:49:13;;;;;;;;;;;;;;;;;;10396513;28;19956;-75
2022/11/09 07:54:13;;;;;;;;;;;;;;;;;;10398835;28;20499;-75
2022/11/09 07:59:14;;;;;;;;;;;;;;;;;;10401187;28;20371;-74
2022/11/09 08:04:15;;;;;;;;;;;;;;;;;;10403026;28;19924;-74
2022/11/09 08:09:15;;;;;;;;;;;;;;;;;;10400499;28;20312;-75
2022/11/09 08:14:16;;;;;;;;;;;;;;;;;;10381678;28;19917;-76
2022/11/09 08:19:16;;;;;;;;;;;;;;;;;;10373909;28;19924;-76
2022/11/09 08:24:16;;;;;;;;;;;;;;;;;;10389989;28;20032;-75
2022/11/09 08:29:16;;;;;;;;;;;;;;;;;;10363213;28;19941;-75
2022/11/09 08:34:16;;;;;;;;;;;;;;;;;;10389762;28;20341;-76
2022/11/09 08:39:18;;;;;;;;;;;;;;;;;;10385939;28;19960;-75
2022/11/09 08:44:19;;;;;;;;;;;;;;;;;;10389833;28;19921;-77
2022/11/09 08:49:19;;;;;;;;;;;;;;;;;;10382687;28;20636;-77
2022/11/09 08:54:19;;;;;;;;;;;;;;;;;;10391172;28;20403;-76
2022/11/09 08:59:19;;;;;;;;;;;;;;;;;;10384929;28;19972;-75
2022/11/09 09:04:21;;;;;;;;;;;;;;;;;;10391210;28;20738;-76
2022/11/09 09:09:21;;;;;;;;;;;;;;;;;;10386481;28;20308;-77
2022/11/09 09:14:21;;;;;;;;;;;;;;;;;;10388263;28;19924;-76
2022/11/09 09:19:21;;;;;;;;;;;;;;;;;;10389439;28;19918;-76
2022/11/09 09:24:22;;;;;;;;;;;;;;;;;;10389413;28;19926;-76
2022/11/09 09:29:22;;;;;;;;;;;;;;;;;;10390074;28;19917;-77
2022/11/09 09:34:22;;;;;;;;;;;;;;;;;;10393499;28;19967;-76
2022/11/09 09:39:23;;;;;;;;;;;;;;;;;;10391015;28;19925;-78
2022/11/09 09:44:23;;;;;;;;;;;;;;;;;;10391693;28;19925;-80
2022/11/09 09:49:23;;;;;;;;;;;;;;;;;;10388244;28;19925;-76
2022/11/09 09:54:24;;;;;;;;;;;;;;;;;;10389125;28;19928;-77
2022/11/09 09:59:24;;;;;;;;;;;;;;;;;;10369917;28;19928;-77
2022/11/09 10:04:24;;;;;;;;;;;;;;;;;;10388790;28;19936;-76
2022/11/09 10:09:24;;;;;;;;;;;;;;;;;;10376753;28;19951;-77
2022/11/09 10:14:25;;;;;;;;;;;;;;;;;;10388394;28;19929;-79
2022/11/09 10:19:25;;;;;;;;;;;;;;;;;;10380617;28;20429;-77
2022/11/09 10:24:25;;;;;;;;;;;;;;;;;;10388217;28;19940;-78
2022/11/09 10:29:25;;;;;;;;;;;;;;;;;;10377381;28;19932;-77
2022/11/09 10:34:26;;;;;;;;;;;;;;;;;;10388967;28;19921;-77
2022/11/09 10:39:26;;;;;;;;;;;;;;;;;;10401797;28;20377;-76
2022/11/09 10:44:45;;;;;;;;;;;;;;;;;;10413179;28;19929;-78
2022/11/09 10:50:04;;;;;;;;;;;;;;;;;;10434208;28;20282;-77
2022/11/09 10:55:23;;;;;;;;;;;;;;;;;;10435528;28;19917;-78
2022/11/09 11:00:42;;;;;;;;;;;;;;;;;;10392965;28;19929;-77
2022/11/09 11:06:01;;;;;;;;;;;;;;;;;;10406498;28;20432;-76
2022/11/09 11:11:20;;;;;;;;;;;;;;;;;;10412560;28;19921;-77
2022/11/09 11:16:40;;;;;;;;;;;;;;;;;;10413853;28;20365;-78
2022/11/09 11:21:59;;;;;;;;;;;;;;;;;;10408265;28;19921;-77
2022/11/09 11:27:18;;;;;;;;;;;;;;;;;;10400869;28;19929;-80
2022/11/09 11:32:37;;;;;;;;;;;;;;;;;;10403275;28;19948;-79
2022/11/09 11:37:57;;;;;;;;;;;;;;;;;;10404577;28;19922;-79
2022/11/09 11:43:18;;;;;;;;;;;;;;;;;;10396835;28;20061;-79
2022/11/09 11:48:37;;;;;;;;;;;;;;;;;;10395377;28;20004;-77
2022/11/09 11:53:56;;;;;;;;;;;;;;;;;;10390261;28;19922;-79
2022/11/09 11:59:15;;;;;;;;;;;;;;;;;;10410042;28;19925;-78
2022/11/09 12:04:34;;;;;;;;;;;;;;;;;;10394615;28;19972;-78
2022/11/09 12:09:53;;;;;;;;;;;;;;;;;;10398064;28;20357;-78
2022/11/09 12:15:12;;;;;;;;;;;;;;;;;;10391106;28;19963;-79
2022/11/09 12:20:32;;;;;;;;;;;;;;;;;;10389807;28;19921;-78
2022/11/09 12:25:51;;;;;;;;;;;;;;;;;;10405049;28;20393;-80
2022/11/09 12:31:10;;;;;;;;;;;;;;;;;;10388629;28;20370;-80
2022/11/09 12:36:29;;;;;;;;;;;;;;;;;;10406652;28;19921;-79
2022/11/09 12:41:48;;;;;;;;;;;;;;;;;;10403665;28;19960;-80
2022/11/09 12:47:07;;;;;;;;;;;;;;;;;;10403696;28;20057;-80
2022/11/09 12:52:27;;;;;;;;;;;;;;;;;;10402720;28;19917;-78
2022/11/09 12:57:46;;;;;;;;;;;;;;;;;;10399844;28;19921;-80
2022/11/09 13:03:05;;;;;;;;;;;;;;;;;;10402092;28;19928;-81
2022/11/09 13:08:25;;;;;;;;;;;;;;;;;;10398272;28;19929;-83
2022/11/09 13:13:44;;;;;;;;;;;;;;;;;;10401886;28;19921;-81
2022/11/09 13:19:06;;;;;;;;;;;;;;;;;;10399193;28;20008;-79
2022/11/09 13:24:25;;;;;;;;;;;;;;;;;;10399383;28;19929;-79
2022/11/09 13:29:45;;;;;;;;;;;;;;;;;;10403007;28;19932;-79
2022/11/09 13:35:04;;;;;;;;;;;;;;;;;;10420188;28;19922;-80
2022/11/09 13:40:23;;;;;;;;;;;;;;;;;;10456595;28;19917;-79
2022/11/09 13:45:42;;;;;;;;;;;;;;;;;;10441294;28;19933;-78
2022/11/09 13:51:01;;;;;;;;;;;;;;;;;;10443019;28;19924;-79
2022/11/09 13:56:20;;;;;;;;;;;;;;;;;;10402476;28;19921;-81
2022/11/09 14:01:39;;;;;;;;;;;;;;;;;;10413320;28;19937;-80
2022/11/09 14:06:58;;;;;;;;;;;;;;;;;;10411375;28;19914;-79
2022/11/09 14:12:18;;;;;;;;;;;;;;;;;;10447645;28;19905;-78
2022/11/09 14:17:37;;;;;;;;;;;;;;;;;;10440501;28;19918;-79
2022/11/09 14:22:56;;;;;;;;;;;;;;;;;;10421910;28;19909;-82
2022/11/09 14:28:15;;;;;;;;;;;;;;;;;;10432170;28;20634;-78
2022/11/09 14:33:35;;;;;;;;;;;;;;;;;;10453514;28;19905;-81
2022/11/09 14:38:54;;;;;;;;;;;;;;;;;;10427285;28;19917;-79
2022/11/09 14:44:13;;;;;;;;;;;;;;;;;;10406697;28;19921;-82
2022/11/09 14:49:36;;;;;;;;;;;;;;;;;;10400765;28;19929;-78
2022/11/09 14:54:57;;;;;;;;;;;;;;;;;;10402577;28;19925;-79
2022/11/09 15:00:15;;;;;;;;;;;;;;;;;;10388606;28;19921;-78
2022/11/09 15:05:35;;;;;;;;;;;;;;;;;;10386537;28;20012;-79
2022/11/09 15:10:54;;;;;;;;;;;;;;;;;;10446215;28;19965;-78
2022/11/09 15:16:13;;;;;;;;;;;;;;;;;;10425573;28;20269;-78
2022/11/09 15:21:32;;;;;;;;;;;;;;;;;;10393728;28;19917;-79
2022/11/09 15:26:51;;;;;;;;;;;;;;;;;;10405728;28;19925;-78
2022/11/09 15:32:10;;;;;;;;;;;;;;;;;;10408378;28;19957;-77
2022/11/09 15:37:30;;;;;;;;;;;;;;;;;;10410257;28;19921;-78
2022/11/09 15:42:49;;;;;;;;;;;;;;;;;;10410001;28;20444;-78
2022/11/09 15:48:11;;;;;;;;;;;;;;;;;;10428806;28;19913;-77
2022/11/09 15:53:31;;;;;;;;;;;;;;;;;;10457548;28;19921;-80
2022/11/09 15:58:53;;;;;;;;;;;;;;;;;;10425423;28;19925;-79
2022/11/09 16:04:13;;;;;;;;;;;;;;;;;;10423167;28;19921;-79
2022/11/09 16:09:31;;;;;;;;;;;;;;;;;;10431711;28;19925;-79
2022/11/09 16:14:51;;;;;;;;;;;;;;;;;;10425731;28;19929;-79
2022/11/09 16:20:10;;;;;;;;;;;;;;;;;;10428999;28;19929;-80
2022/11/09 16:25:49;;;;;;;;;;;;;;;;;;10435776;28;19941;-78
2022/11/09 16:31:08;;;;;;;;;;;;;;;;;;10415562;28;19953;-78
2022/11/09 16:36:27;;;;;;;;;;;;;;;;;;10416492;28;19920;-79
2022/11/09 16:41:46;;;;;;;;;;;;;;;;;;10408062;28;19937;-80
2022/11/09 16:47:12;;;;;;;;;;;;;;;;;;10406724;28;19933;-80
2022/11/09 16:52:31;;;;;;;;;;;;;;;;;;10397188;28;19917;-78
2022/11/09 16:57:51;;;;;;;;;;;;;;;;;;10399431;28;19921;-77
2022/11/09 17:03:10;;;;;;;;;;;;;;;;;;10399263;28;19974;-76
2022/11/09 17:08:30;;;;;;;;;;;;;;;;;;10400362;28;19933;-77
2022/11/09 17:13:48;;;;;;;;;;;;;;;;;;10422272;28;19921;-79
2022/11/09 17:19:08;;;;;;;;;;;;;;;;;;10407384;28;19925;-76
2022/11/09 17:24:27;;;;;;;;;;;;;;;;;;10403847;28;19923;-76
2022/11/09 17:29:46;;;;;;;;;;;;;;;;;;10383048;28;19921;-76
2022/11/09 17:35:05;;;;;;;;;;;;;;;;;;10393376;28;20373;-75
2022/11/09 17:40:24;;;;;;;;;;;;;;;;;;10405785;28;19953;-73
2022/11/09 17:45:45;;;;;;;;;;;;;;;;;;10406516;28;19930;-75
2022/11/09 17:51:04;;;;;;;;;;;;;;;;;;10387658;28;19921;-76
2022/11/09 17:56:23;;;;;;;;;;;;;;;;;;10381593;28;20003;-77
2022/11/09 18:01:43;;;;;;;;;;;;;;;;;;10379681;28;19922;-75
2022/11/09 18:07:02;;;;;;;;;;;;;;;;;;10389576;28;20042;-76
2022/11/09 18:12:22;;;;;;;;;;;;;;;;;;10385535;28;19925;-76
2022/11/09 18:17:41;;;;;;;;;;;;;;;;;;10401606;28;19918;-76
2022/11/09 18:23:01;;;;;;;;;;;;;;;;;;10404733;28;20029;-75
2022/11/09 18:28:19;;;;;;;;;;;;;;;;;;10402355;28;19930;-76
2022/11/09 18:33:39;;;;;;;;;;;;;;;;;;10399296;28;20286;-75
2022/11/09 18:38:58;;;;;;;;;;;;;;;;;;10378534;28;19918;-76
2022/11/09 18:44:18;;;;;;;;;;;;;;;;;;10389788;28;19933;-77
2022/11/09 18:49:37;;;;;;;;;;;;;;;;;;10373699;28;19929;-77
2022/11/09 18:54:57;;;;;;;;;;;;;;;;;;10380545;28;20269;-78
2022/11/09 19:00:17;;;;;;;;;;;;;;;;;;10383552;28;19921;-77
2022/11/09 19:05:36;;;;;;;;;;;;;;;;;;10392618;28;19926;-77
2022/11/09 19:10:55;;;;;;;;;;;;;;;;;;10414595;28;19921;-76
2022/11/09 19:16:14;;;;;;;;;;;;;;;;;;10368272;28;20536;-79
2022/11/09 19:21:34;;;;;;;;;;;;;;;;;;10362257;28;19925;-79
2022/11/09 19:26:55;;;;;;;;;;;;;;;;;;10363779;28;19938;-78
2022/11/09 19:32:14;;;;;;;;;;;;;;;;;;10360289;28;19929;-77
2022/11/09 19:37:33;;;;;;;;;;;;;;;;;;10359426;28;19960;-78
2022/11/09 19:42:52;;;;;;;;;;;;;;;;;;10362890;28;19921;-77
2022/11/09 19:48:11;;;;;;;;;;;;;;;;;;10362160;28;20445;-77
2022/11/09 19:53:31;;;;;;;;;;;;;;;;;;10363442;28;20008;-79
2022/11/09 19:58:50;;;;;;;;;;;;;;;;;;10361680;28;19930;-78
2022/11/09 20:04:09;;;;;;;;;;;;;;;;;;10363424;28;19929;-79
2022/11/09 20:09:27;;;;;;;;;;;;;;;;;;10358584;28;20016;-79
2022/11/09 20:14:47;;;;;;;;;;;;;;;;;;10360482;28;19969;-80
2022/11/09 20:20:06;;;;;;;;;;;;;;;;;;10358556;28;19929;-80
2022/11/09 20:25:25;;;;;;;;;;;;;;;;;;10354756;28;19930;-79
2022/11/09 20:30:44;;;;;;;;;;;;;;;;;;10353652;28;19925;-79
2022/11/09 20:36:03;;;;;;;;;;;;;;;;;;10385203;28;19914;-78
2022/11/09 20:41:22;;;;;;;;;;;;;;;;;;10396248;28;19906;-79
2022/11/09 20:46:41;;;;;;;;;;;;;;;;;;10395862;28;20011;-78
2022/11/09 20:52:00;;;;;;;;;;;;;;;;;;10414250;28;19905;-79
2022/11/09 20:57:20;;;;;;;;;;;;;;;;;;10416903;28;19905;-77
2022/11/09 21:02:41;;;;;;;;;;;;;;;;;;10376504;28;20361;-77
2022/11/09 21:08:01;;;;;;;;;;;;;;;;;;10370387;28;19925;-80
2022/11/09 21:13:20;;;;;;;;;;;;;;;;;;10350355;28;20374;-78
2022/11/09 21:18:39;;;;;;;;;;;;;;;;;;10350658;28;20301;-81
2022/11/09 21:29:51;;;;;;;;;;;;;;;;;;10342354;28;20341;-77
2022/11/09 21:35:10;;;;;;;;;;;;;;;;;;10352215;28;19943;-77
2022/11/09 21:40:29;;;;;;;;;;;;;;;;;;10334315;28;19977;-78
2022/11/09 21:45:48;;;;;;;;;;;;;;;;;;10349024;28;19929;-77
2022/11/09 21:51:07;;;;;;;;;;;;;;;;;;10337979;28;19922;-77
2022/11/09 21:56:26;;;;;;;;;;;;;;;;;;10340196;28;20004;-79
2022/11/09 22:01:45;;;;;;;;;;;;;;;;;;10321876;28;19929;-75
2022/11/09 22:07:04;;;;;;;;;;;;;;;;;;10342037;28;19930;-78
2022/11/09 22:20:53;;;;;;;;;;;;;;;;;;10324844;28;19918;-79
2022/11/09 22:23:49;;;;;;;;;;;;;;;;;;10369311;28;19965;-78
2022/11/09 22:29:08;;;;;;;;;;;;;;;;;;10356596;28;20012;-78
2022/11/09 22:34:27;;;;;;;;;;;;;;;;;;10374868;28;19925;-77
2022/11/09 22:39:46;;;;;;;;;;;;;;;;;;10343637;28;19918;-75
2022/11/09 22:45:05;;;;;;;;;;;;;;;;;;10341038;28;19929;-77
2022/11/09 22:50:24;;;;;;;;;;;;;;;;;;10342185;28;20020;-76
2022/11/09 22:55:43;;;;;;;;;;;;;;;;;;10341137;28;20352;-77
2022/11/09 23:01:03;;;;;;;;;;;;;;;;;;10341354;28;19921;-77
2022/11/09 23:06:22;;;;;;;;;;;;;;;;;;10345978;28;19930;-80
2022/11/09 23:11:41;;;;;;;;;;;;;;;;;;10365292;28;19926;-78
2022/11/09 23:17:00;;;;;;;;;;;;;;;;;;10354347;28;19981;-78
2022/11/09 23:22:19;;;;;;;;;;;;;;;;;;10362501;28;19934;-79
2022/11/09 23:27:41;;;;;;;;;;;;;;;;;;10371924;28;19989;-80
2022/11/09 23:33:01;;;;;;;;;;;;;;;;;;10366374;28;19985;-77
2022/11/09 23:38:20;;;;;;;;;;;;;;;;;;10365369;28;19929;-78
2022/11/09 23:43:47;;;;;;;;;;;;;;;;;;10361791;28;19925;-76
2022/11/09 23:49:06;;;;;;;;;;;;;;;;;;10351926;28;20012;-77
2022/11/09 23:54:24;;;;;;;;;;;;;;;;;;10334199;28;20016;-78
2022/11/09 23:59:43;;;;;;;;;;;;;;;;;;10363428;28;20198;-79
